ADDS METAR Data INFO
IDs: Format: Raw Decoded Include TAF

Data at: 2050 UTC 19 Jul 2018

KPQL 191953Z VRB05KT 10SM FEW026 FEW032 34/24 A2990 RMK AO2 SLP126 T03390244
KPQL 191853Z VRB05KT 10SM FEW023 BKN037 33/25 A2992 RMK AO2 SLP134 T03280250
KPQL 191848Z VRB03KT 10SM SCT023 SCT030 BKN037 32/24 A2993 RMK AO2
KPQL 191812Z VRB04KT 10SM BKN021 32/25 A2993 RMK AO2 T03170250
KPQL 191753Z 31003KT 10SM SCT021 BKN034 32/25 A2994 RMK AO2 SLP138 T03170250 10317 20244 58007
KPQL 191718Z AUTO 34003KT 10SM BKN020 BKN039 31/24 A2995 RMK AO2 T03060244
KPQL 191653Z AUTO 35004KT 10SM SCT020 31/24 A2995 RMK AO2 SLP144 T03110244
KPQL 191553Z AUTO VRB03KT 10SM CLR 30/24 A2996 RMK AO2 SLP147 T03000244
KPQL 191453Z AUTO 32003KT 10SM SCT013 SCT040 28/24 A2996 RMK AO2 SLP145 T02830239 50000
KPQL 191451Z AUTO 32003KT 10SM SCT013 BKN039 28/24 A2996 RMK AO2
KPQL 191432Z AUTO 29003KT 10SM BKN014 28/24 A2996 RMK AO2 T02780239
KPQL 191353Z AUTO 29003KT 10SM OVC016 27/23 A2996 RMK AO2 SLP147 T02670233
KPQL 191253Z AUTO 00000KT 10SM BKN019 26/23 A2996 RMK AO2 SLP145 T02560233
KPQL 191153Z AUTO 00000KT 6SM BR FEW026 24/23 A2995 RMK AO2 SLP144 70005 T02390228 10239 20233 53008
KPQL 191053Z AUTO 00000KT 7SM SCT046 23/22 A2994 RMK AO2 SLP141 T02330222
KPQL 190953Z AUTO 00000KT 5SM BR FEW003 23/22 A2994 RMK AO2 SLP138 T02330222
KPQL 190901Z AUTO 00000KT 6SM BR FEW003 24/23 A2993 RMK AO2 T02390228
KPQL 190853Z AUTO 00000KT 7SM BKN003 24/23 A2993 RMK AO2 SLP136 T02390228 51007
KPQL 190753Z AUTO 00000KT 6SM BR OVC003 24/23 A2993 RMK AO2 SLP136 T02390228
KPQL 190653Z AUTO 29004KT 9SM OVC004 24/23 A2993 RMK AO2 CIG 003V006 SLP135 T02390228
KPQL 190643Z AUTO 29003KT 10SM BKN004 24/23 A2992 RMK AO2 T02390228
KPQL 190636Z AUTO 28004KT 10SM SCT006 24/23 A2992 RMK AO2 T02390228
KPQL 190553Z AUTO 00000KT 8SM CLR 24/23 A2991 RMK AO2 SLP129 60002 T02390228 10250 20239 403440233 58012
KPQL 190453Z AUTO 00000KT 9SM CLR 24/23 A2992 RMK AO2 SLP134 T02390228
KPQL 190353Z AUTO 00000KT 9SM CLR 24/23 A2994 RMK AO2 SLP139 T02390228
KPQL 190253Z AUTO 00000KT 10SM CLR 25/23 A2994 RMK AO2 SLP141 60002 T02500233 53001
KPQL 190153Z AUTO 00000KT 10SM CLR 25/23 A2994 RMK AO2 SLP139 T02500233
KPQL 190053Z 00000KT 10SM SCT100 25/23 A2994 RMK AO2 RAE37 SLP140 P0002 T02500233
KPQL 190005Z VRB03KT 8SM -RA FEW009 OVC100 24/23 A2994 RMK AO2 P0001 T02440233
KPQL 182353Z 00000KT 7SM -RA FEW010 BKN100 OVC110 24/23 A2994 RMK AO2 RAB19 SLP140 P0002 60003 T02440233 10344 20244 55003
KPQL 182253Z 24003KT 10SM CLR 25/23 A2993 RMK AO2 RAE13 SLP137 P0000 T02500228
KPQL 182153Z 23003KT 8SM -RA BKN044 BKN050 OVC070 26/24 A2993 RMK AO2 LTG DSNT NE AND SW AND W RAB29 PRESFR SLP135 P0001 T02610239
KPQL 182131Z 33005KT 10SM -RA FEW055 SCT085 BKN110 26/22 A2996 RMK AO2 LTG DSNT N AND NE RAB29 P0000 T02610222
KPQL 182116Z VRB03KT 10SM VCTS FEW120 27/22 A2995 RMK AO2 LTG DSNT W-NE T02670222
KPQL 182108Z 30004KT 10SM SCT120 27/22 A2994 RMK AO2 LTG DSNT W-NE T02670222
KPQL 182053Z 29007KT 270V330 10SM VCTS SCT110 27/23 A2995 RMK AO2 LTG DSNT W-NE SLP142 T02720228 55007
KPQL 182030Z 29007G16KT 10SM VCTS CLR 28/23 A2995 RMK AO2 LTG DSNT ALQDS T02780233
KPQL 182022Z VRB05KT 10SM CLR 28/23 A2995 RMK AO2 LTG DSNT W-N T02830228
KPQL 181953Z 24009KT 10SM VCTS CLR 32/22 A2995 RMK AO2 LTG DSNT ALQDS TSB1856E13 SLP142 T03170222
KPQL 181926Z 24007G14KT 210V270 10SM FEW037 29/23 A2995 RMK AO2 LTG DSNT ALQDS TSB1856E13 T02940233
KPQL 181919Z 26008G19KT 210V300 10SM VCTS SCT037 29/24 A2995 RMK AO2 LTG DSNT ALQDS TSB1856E13 T02940239
KPQL 181902Z 24011G18KT 10SM TS FEW039 SCT050 31/24 A2996 RMK AO2 LTG DSNT N AND E AND W TSB1856 T03110244
KPQL 181853Z 24012G17KT 200V280 10SM VCTS FEW041 SCT050 31/24 A2996 RMK AO2 LTG DSNT W SLP147 T03110244
KPQL 181753Z 30005KT 10SM VCTS FEW036 34/24 A2997 RMK AO2 LTG DSNT SW SLP150 T03390239 10339 20244 58007
KPQL 181653Z VRB05KT 10SM FEW029 33/24 A2998 RMK AO2 SLP154 T03330244
KPQL 181553Z VRB04KT 10SM CLR 32/24 A3000 RMK AO2 SLP160 T03170244
KPQL 181453Z 30006KT 10SM CLR 30/24 A2999 RMK AO2 SLP156 T03000239 58005
KPQL 181353Z 33003KT 10SM CLR 28/24 A3002 RMK AO2 LTG DSNT S SLP166 T02830239
KPQL 181329Z 33003KT 10SM SCT017 27/24 A3002 RMK AO2 LTG DSNT SE AND S T02670244
KPQL 181304Z 00000KT 10SM BKN018 BKN029 BKN035 26/24 A3003 RMK AO2 LTG DSNT S T02610239
KPQL 181253Z 00000KT 9SM SCT012 BKN036 26/24 A3003 RMK AO2 LTG DSNT S SLP169 T02560239
KPQL 181153Z 33003KT 5SM BR SCT020 24/23 A3000 RMK AO2 LTG DSNT S SLP161 70008 T02440233 10244 20233 53006
KPQL 181053Z AUTO 36004KT 5SM BR CLR 24/23 A2999 RMK AO2 LTG DSNT S AND SW SLP156 T02390228
KPQL 180953Z AUTO 00000KT 8SM OVC047 24/23 A2999 RMK AO2 LTG DSNT SE AND S SLP156 T02440233
KPQL 180853Z AUTO 00000KT 3SM BR CLR 23/22 A2999 RMK AO2 LTG DSNT SE SLP155 T02330222 55006